Time;durP1;ratioP1;P1;durP2;ratioP2;P2;SDS_P1;SDS_P2;PMS_P1;PMS_P2;Temp;Humidity;BMP_temperature;BMP_pressure;BME280_temperature;BME280_humidity;BME280_pressure;Samples;Min_cycle;Max_cycle;Signal;HPM_P1;HPM_P2
2021/08/11 00:02:21;;;;;;;8.10;6.30;;;17.90;99.90;;;;;;5035484;28;20186;-64
2021/08/11 00:04:46;;;;;;;7.27;5.70;;;17.90;99.90;;;;;;5035379;28;20183;-64
2021/08/11 00:07:12;;;;;;;5.67;4.90;;;17.90;99.90;;;;;;5035280;28;20229;-65
2021/08/11 00:09:37;;;;;;;7.93;5.80;;;17.90;99.90;;;;;;5034852;28;20629;-65
2021/08/11 00:12:04;;;;;;;5.83;5.33;;;17.90;99.90;;;;;;5035414;28;20622;-65
2021/08/11 00:14:29;;;;;;;7.70;5.77;;;17.90;99.90;;;;;;5047079;28;20170;-65
2021/08/11 00:16:55;;;;;;;6.87;6.07;;;17.90;99.90;;;;;;5055210;28;20770;-65
2021/08/11 00:19:20;;;;;;;6.00;5.50;;;17.90;99.90;;;;;;5054717;28;20201;-65
2021/08/11 00:21:46;;;;;;;5.40;4.90;;;17.90;99.90;;;;;;5054789;28;20180;-65
2021/08/11 00:24:13;;;;;;;7.03;6.27;;;17.80;99.90;;;;;;5054973;28;20256;-65
2021/08/11 00:26:38;;;;;;;6.23;5.20;;;17.80;99.90;;;;;;5054404;28;20197;-65
2021/08/11 00:29:04;;;;;;;5.97;5.00;;;17.80;99.90;;;;;;5055088;28;20960;-65
2021/08/11 00:31:30;;;;;;;6.03;5.50;;;17.80;99.90;;;;;;5037387;28;20730;-65
2021/08/11 00:33:56;;;;;;;9.77;5.70;;;17.90;99.90;;;;;;5036245;28;20232;-64
2021/08/11 00:36:21;;;;;;;6.00;5.53;;;17.80;99.90;;;;;;5036286;28;20413;-64
2021/08/11 00:38:47;;;;;;;7.77;6.13;;;17.80;99.90;;;;;;5035690;28;20228;-65
2021/08/11 00:41:15;;;;;;;6.30;5.70;;;17.80;99.90;;;;;;5036483;28;20198;-65
2021/08/11 00:43:40;;;;;;;6.70;5.40;;;17.80;99.90;;;;;;5037515;28;20183;-65
2021/08/11 00:46:10;;;;;;;9.43;6.10;;;17.70;99.90;;;;;;5034585;28;20772;-65
2021/08/11 00:48:37;;;;;;;5.80;5.27;;;17.70;99.90;;;;;;5034328;28;20202;-65
2021/08/11 00:51:04;;;;;;;6.30;5.63;;;17.60;99.90;;;;;;5034387;28;20464;-65
2021/08/11 00:53:31;;;;;;;7.00;5.20;;;17.60;99.90;;;;;;5035814;28;20783;-65
2021/08/11 00:55:58;;;;;;;5.87;5.13;;;17.70;99.90;;;;;;5034381;28;20440;-65
2021/08/11 00:58:25;;;;;;;6.20;5.70;;;17.70;99.90;;;;;;5035298;28;20846;-65
2021/08/11 01:00:52;;;;;;;6.10;5.33;;;17.60;99.90;;;;;;5034338;28;20455;-65
2021/08/11 01:03:20;;;;;;;7.53;5.30;;;17.60;99.90;;;;;;5016636;28;20424;-65
2021/08/11 01:05:46;;;;;;;9.90;5.00;;;17.60;99.90;;;;;;5034120;28;20448;-65
2021/08/11 01:08:12;;;;;;;6.70;5.57;;;17.70;99.90;;;;;;5034187;28;20547;-65
2021/08/11 01:10:40;;;;;;;10.20;5.47;;;17.70;99.90;;;;;;5033997;28;20447;-65
2021/08/11 01:13:06;;;;;;;6.43;5.93;;;17.70;99.90;;;;;;5034126;28;20429;-65
2021/08/11 01:15:31;;;;;;;8.10;7.30;;;17.60;99.90;;;;;;5046885;28;20451;-65
2021/08/11 01:17:57;;;;;;;6.00;5.50;;;17.60;99.90;;;;;;5035118;28;20528;-65
2021/08/11 01:20:23;;;;;;;8.17;5.20;;;17.60;99.90;;;;;;5033426;28;20230;-65
2021/08/11 01:23:03;;;;;;;7.37;4.93;;;17.60;99.90;;;;;;5016278;28;20980;-65
2021/08/11 01:25:31;;;;;;;6.77;6.00;;;17.60;99.90;;;;;;5044946;28;20181;-65
2021/08/11 01:28:38;;;;;;;6.00;5.33;;;17.60;99.90;;;;;;5053586;28;20968;-65
2021/08/11 01:31:18;;;;;;;5.80;5.40;;;17.60;99.90;;;;;;4987251;28;20471;-65
2021/08/11 01:33:56;;;;;;;7.87;5.80;;;17.50;99.90;;;;;;5033789;28;20440;-65
2021/08/11 01:36:36;;;;;;;6.77;6.07;;;17.60;99.90;;;;;;5042010;28;20436;-65
2021/08/11 01:39:21;;;;;;;8.40;5.47;;;17.60;99.90;;;;;;5053685;28;20412;-65
2021/08/11 01:41:54;;;;;;;5.77;5.20;;;17.60;99.90;;;;;;5053195;28;20470;-65
2021/08/11 01:44:23;;;;;;;11.20;5.73;;;17.70;99.90;;;;;;5043264;28;20502;-65
2021/08/11 01:46:49;;;;;;;5.87;5.30;;;17.80;99.90;;;;;;5035395;28;20556;-65
2021/08/11 01:49:16;;;;;;;6.23;5.63;;;17.80;99.90;;;;;;5052691;28;20447;-65
2021/08/11 01:51:45;;;;;;;7.20;5.63;;;17.70;99.90;;;;;;5053008;28;20466;-65
2021/08/11 01:54:13;;;;;;;6.10;5.50;;;17.70;99.90;;;;;;5052724;28;20439;-65
2021/08/11 01:56:41;;;;;;;8.70;5.73;;;17.60;99.90;;;;;;5052414;28;20493;-65
2021/08/11 01:59:08;;;;;;;8.87;6.00;;;17.60;99.90;;;;;;5050488;28;20522;-65
2021/08/11 02:01:39;;;;;;;8.93;6.43;;;17.60;99.90;;;;;;5052958;28;20948;-65
2021/08/11 02:04:07;;;;;;;6.73;5.93;;;17.60;99.90;;;;;;5052686;28;20436;-65
2021/08/11 02:06:37;;;;;;;6.53;5.83;;;17.50;99.90;;;;;;5053083;28;20462;-66
2021/08/11 02:09:03;;;;;;;6.33;5.73;;;17.40;99.90;;;;;;5051644;28;20513;-65
2021/08/11 02:11:29;;;;;;;7.00;6.30;;;17.30;99.90;;;;;;5052740;28;20524;-65
2021/08/11 02:13:56;;;;;;;11.33;5.83;;;17.20;99.90;;;;;;5034785;28;20518;-65
2021/08/11 02:16:22;;;;;;;8.33;6.10;;;17.30;99.90;;;;;;5039198;28;20437;-65
2021/08/11 02:18:47;;;;;;;7.37;6.67;;;17.20;99.90;;;;;;5032503;28;20444;-65
2021/08/11 02:21:13;;;;;;;6.50;5.90;;;17.20;99.90;;;;;;5033308;28;20234;-65
2021/08/11 02:23:40;;;;;;;8.50;6.67;;;17.00;99.90;;;;;;5041436;28;20170;-65
2021/08/11 02:26:10;;;;;;;6.53;5.97;;;16.90;99.90;;;;;;5052782;28;20170;-65
2021/08/11 02:28:47;;;;;;;7.23;5.80;;;16.90;99.90;;;;;;5052063;28;20441;-65
2021/08/11 02:31:23;;;;;;;6.23;5.83;;;16.70;99.90;;;;;;5036153;28;20931;-65
2021/08/11 02:34:15;;;;;;;10.40;6.87;;;16.70;99.90;;;;;;5050998;28;20435;-65
2021/08/11 02:37:00;;;;;;;7.73;7.03;;;16.70;99.90;;;;;;5052284;28;21003;-65
2021/08/11 02:39:38;;;;;;;9.43;6.03;;;16.70;99.90;;;;;;5025698;28;20462;-65
2021/08/11 02:42:09;;;;;;;7.60;6.20;;;16.70;99.90;;;;;;5052189;28;20455;-65
2021/08/11 02:44:40;;;;;;;6.13;5.53;;;16.70;99.90;;;;;;5034145;28;20432;-65
2021/08/11 02:47:06;;;;;;;6.73;6.13;;;16.60;99.90;;;;;;5032317;28;20945;-65
2021/08/11 02:49:35;;;;;;;11.67;6.70;;;16.60;99.90;;;;;;5032000;28;20444;-65
2021/08/11 02:52:01;;;;;;;8.30;7.03;;;16.50;99.90;;;;;;5041553;28;20524;-65
2021/08/11 02:54:28;;;;;;;6.43;5.93;;;16.60;99.90;;;;;;5052039;28;20467;-65
2021/08/11 02:56:55;;;;;;;7.07;6.33;;;16.60;99.90;;;;;;5052215;28;20427;-65
2021/08/11 02:59:27;;;;;;;8.80;6.97;;;16.60;99.90;;;;;;5050137;28;20500;-65
2021/08/11 03:01:54;;;;;;;7.43;6.20;;;16.60;99.90;;;;;;5036788;28;20484;-65
2021/08/11 03:04:19;;;;;;;8.30;7.50;;;16.60;99.90;;;;;;5032126;28;20941;-65
2021/08/11 03:06:45;;;;;;;7.17;6.47;;;16.70;99.90;;;;;;5031989;28;20471;-65
2021/08/11 03:09:11;;;;;;;7.20;6.03;;;16.70;99.90;;;;;;5031787;28;20202;-65
2021/08/11 03:11:37;;;;;;;7.17;6.47;;;16.70;99.90;;;;;;5032078;28;20647;-65
2021/08/11 03:14:05;;;;;;;6.97;6.43;;;16.70;99.90;;;;;;5031981;28;20232;-65
2021/08/11 03:16:31;;;;;;;6.90;6.30;;;16.60;99.90;;;;;;5031964;28;20441;-65
2021/08/11 03:18:56;;;;;;;8.17;7.37;;;16.70;99.90;;;;;;5031023;28;20441;-65
2021/08/11 03:21:22;;;;;;;8.10;7.50;;;16.60;99.90;;;;;;5049664;28;20566;-65
2021/08/11 03:23:48;;;;;;;12.70;7.03;;;16.50;99.90;;;;;;5051652;28;20183;-65
2021/08/11 03:26:13;;;;;;;9.83;6.60;;;16.50;99.90;;;;;;5051825;28;20229;-65
2021/08/11 03:28:39;;;;;;;8.70;6.57;;;16.50;99.90;;;;;;5051188;28;20189;-65
2021/08/11 03:31:05;;;;;;;7.97;7.07;;;16.50;99.90;;;;;;5036385;28;20597;-65
2021/08/11 03:33:30;;;;;;;7.10;6.43;;;16.50;99.90;;;;;;5035579;28;20220;-65
2021/08/11 03:35:56;;;;;;;7.50;6.80;;;16.50;99.90;;;;;;5051091;28;20173;-65
2021/08/11 03:38:21;;;;;;;7.60;6.80;;;16.50;99.90;;;;;;5051551;28;20165;-65
2021/08/11 03:40:47;;;;;;;7.73;7.10;;;16.30;99.90;;;;;;5051035;28;20196;-65
2021/08/11 03:43:13;;;;;;;6.40;5.83;;;16.30;99.90;;;;;;5051372;28;20223;-65
2021/08/11 03:45:38;;;;;;;6.23;5.63;;;16.20;99.90;;;;;;5051049;28;20181;-65
2021/08/11 03:48:04;;;;;;;11.03;6.20;;;16.20;99.90;;;;;;5045277;28;20206;-65
2021/08/11 03:50:30;;;;;;;12.00;6.23;;;16.40;99.90;;;;;;5013692;28;20194;-65
2021/08/11 03:52:56;;;;;;;6.57;5.47;;;16.50;99.90;;;;;;5031659;28;20170;-65
2021/08/11 03:55:21;;;;;;;8.47;5.57;;;16.60;99.90;;;;;;5031612;28;20225;-65
2021/08/11 03:57:47;;;;;;;7.40;6.70;;;16.70;99.90;;;;;;5032709;28;20210;-65
2021/08/11 04:00:13;;;;;;;7.17;6.57;;;16.70;99.90;;;;;;5039675;28;20201;-65
2021/08/11 04:02:39;;;;;;;6.67;5.90;;;16.60;99.90;;;;;;5031798;28;20194;-65
2021/08/11 04:05:06;;;;;;;7.40;6.70;;;16.50;99.90;;;;;;5031495;28;20480;-65
2021/08/11 04:07:32;;;;;;;6.77;6.00;;;16.50;99.90;;;;;;5031531;28;20610;-65
2021/08/11 04:09:57;;;;;;;7.57;6.57;;;16.70;99.90;;;;;;5031102;28;20453;-65
2021/08/11 04:12:23;;;;;;;8.07;6.13;;;16.70;99.90;;;;;;5031473;28;20228;-65
2021/08/11 04:14:48;;;;;;;7.03;6.33;;;16.70;99.90;;;;;;5031362;28;20699;-65
2021/08/11 04:17:14;;;;;;;7.43;6.70;;;16.70;99.90;;;;;;5044588;28;20174;-65
2021/08/11 04:19:39;;;;;;;5.77;5.10;;;16.50;99.90;;;;;;5065284;23;20230;-66
2021/08/11 04:22:05;;;;;;;8.23;6.70;;;16.30;99.90;;;;;;5003186;28;20641;-66
2021/08/11 04:24:30;;;;;;;8.47;6.33;;;16.30;99.90;;;;;;5011258;28;20175;-66
2021/08/11 04:26:56;;;;;;;10.67;7.30;;;16.30;99.90;;;;;;5011289;28;20202;-66
2021/08/11 04:29:22;;;;;;;6.80;6.20;;;16.30;99.90;;;;;;5009997;28;20171;-66
2021/08/11 04:31:47;;;;;;;9.40;6.30;;;16.40;99.90;;;;;;5010239;28;20178;-66
2021/08/11 04:34:13;;;;;;;6.97;6.37;;;16.50;99.90;;;;;;5014973;28;20166;-66
2021/08/11 04:36:38;;;;;;;6.67;5.83;;;16.50;99.90;;;;;;5015028;28;20187;-66
2021/08/11 04:39:04;;;;;;;7.60;6.90;;;16.50;99.90;;;;;;5015037;28;20568;-66
2021/08/11 04:41:29;;;;;;;7.43;5.77;;;16.50;99.90;;;;;;5014844;28;20205;-66
2021/08/11 04:43:55;;;;;;;7.17;6.50;;;16.40;99.90;;;;;;5014435;28;20700;-66
2021/08/11 04:46:21;;;;;;;6.50;5.90;;;16.40;99.90;;;;;;5015142;28;20199;-66
2021/08/11 04:48:46;;;;;;;10.13;6.40;;;16.50;99.90;;;;;;5014386;28;20179;-66
2021/08/11 04:51:12;;;;;;;6.03;5.63;;;16.50;99.90;;;;;;5014551;28;20190;-66
2021/08/11 04:53:38;;;;;;;7.23;6.50;;;16.60;99.90;;;;;;5009206;28;20179;-66
2021/08/11 04:56:03;;;;;;;7.77;6.90;;;16.60;99.90;;;;;;4995191;28;20571;-66
2021/08/11 04:58:29;;;;;;;8.80;6.50;;;16.70;99.90;;;;;;5002216;28;20537;-66
2021/08/11 05:00:54;;;;;;;14.03;6.87;;;16.60;99.90;;;;;;5014603;28;20191;-66
2021/08/11 05:03:20;;;;;;;8.17;7.27;;;16.50;99.90;;;;;;5014626;28;20182;-66
2021/08/11 05:05:45;;;;;;;8.50;6.97;;;16.60;99.90;;;;;;5014564;28;20171;-66
2021/08/11 05:08:11;;;;;;;14.30;7.80;;;16.60;99.90;;;;;;5014562;28;20237;-66
2021/08/11 05:10:37;;;;;;;8.03;7.37;;;16.70;99.90;;;;;;5007196;28;20188;-66
2021/08/11 05:13:02;;;;;;;9.40;8.50;;;16.80;99.90;;;;;;4995285;28;20233;-66
2021/08/11 05:15:28;;;;;;;7.90;7.20;;;16.90;99.90;;;;;;4994828;28;20629;-66
2021/08/11 05:17:53;;;;;;;8.50;7.70;;;17.10;99.90;;;;;;4994764;28;20281;-66
2021/08/11 05:20:19;;;;;;;7.57;6.97;;;17.20;99.90;;;;;;4994290;28;20211;-66
2021/08/11 05:22:49;;;;;;;9.47;7.70;;;17.20;99.90;;;;;;4994784;28;20664;-66
2021/08/11 05:25:15;;;;;;;7.60;7.00;;;17.40;99.90;;;;;;4994680;28;20508;-66
2021/08/11 05:27:41;;;;;;;10.60;7.20;;;17.60;99.90;;;;;;4995593;28;20893;-66
2021/08/11 05:30:08;;;;;;;12.73;7.20;;;17.80;99.90;;;;;;5004222;28;20214;-66
2021/08/11 05:32:34;;;;;;;8.87;6.70;;;18.00;99.90;;;;;;4994641;28;20796;-66
2021/08/11 05:34:59;;;;;;;8.83;7.80;;;18.10;99.90;;;;;;4996227;28;20501;-66
2021/08/11 05:37:26;;;;;;;11.70;6.80;;;18.10;99.90;;;;;;5013893;28;20628;-66
2021/08/11 05:39:51;;;;;;;11.37;7.00;;;18.20;99.90;;;;;;5013568;28;20230;-66
2021/08/11 05:42:17;;;;;;;11.07;7.30;;;18.40;99.90;;;;;;5013073;28;20946;-66
2021/08/11 05:44:43;;;;;;;7.17;6.47;;;18.50;99.90;;;;;;5013714;28;20594;-66
2021/08/11 05:47:10;;;;;;;9.77;7.27;;;18.60;99.90;;;;;;5006500;28;20211;-66
2021/08/11 05:49:36;;;;;;;10.37;8.70;;;18.80;99.90;;;;;;4993893;28;20188;-66
2021/08/11 05:52:03;;;;;;;7.40;6.67;;;19.00;99.90;;;;;;4997999;28;21053;-66
2021/08/11 05:54:29;;;;;;;8.17;6.90;;;19.10;99.90;;;;;;5003207;28;20187;-66
2021/08/11 05:56:54;;;;;;;7.63;6.90;;;19.10;99.90;;;;;;5007153;28;20426;-66
2021/08/11 05:59:20;;;;;;;7.27;6.67;;;19.30;99.90;;;;;;4999854;28;20179;-66
2021/08/11 06:01:46;;;;;;;6.93;6.23;;;19.40;99.90;;;;;;4998555;28;20187;-66
2021/08/11 06:04:12;;;;;;;8.03;7.20;;;19.60;99.90;;;;;;5009835;28;20186;-66
2021/08/11 06:06:37;;;;;;;8.43;6.60;;;19.80;99.90;;;;;;5002253;28;20449;-66
2021/08/11 06:09:03;;;;;;;8.20;6.87;;;19.80;99.90;;;;;;5003931;28;20183;-66
2021/08/11 06:11:29;;;;;;;7.30;6.60;;;19.80;99.90;;;;;;4996929;28;20203;-66
2021/08/11 06:13:54;;;;;;;9.67;7.03;;;19.90;99.90;;;;;;5013146;28;20706;-66
2021/08/11 06:16:20;;;;;;;10.27;6.67;;;20.00;99.90;;;;;;4992356;28;20180;-66
2021/08/11 06:18:45;;;;;;;7.43;6.77;;;20.10;99.90;;;;;;4994727;28;20259;-66
2021/08/11 06:21:11;;;;;;;8.00;6.20;;;20.30;99.90;;;;;;5006502;28;20594;-66
2021/08/11 06:23:36;;;;;;;8.03;7.20;;;20.30;99.90;;;;;;5013250;28;20550;-66
2021/08/11 06:26:02;;;;;;;6.73;6.20;;;20.50;99.90;;;;;;5013130;28;20171;-66
2021/08/11 06:28:28;;;;;;;8.50;6.70;;;20.60;99.90;;;;;;5012657;28;20163;-66
2021/08/11 06:30:53;;;;;;;7.27;6.17;;;20.70;99.90;;;;;;5002736;28;20891;-66
2021/08/11 06:33:19;;;;;;;8.77;6.67;;;20.90;99.90;;;;;;5003262;28;20676;-67
2021/08/11 06:35:44;;;;;;;6.23;5.60;;;21.20;99.90;;;;;;5011470;28;20246;-63
2021/08/11 06:38:10;;;;;;;6.53;5.77;;;21.40;99.90;;;;;;5013236;28;20258;-63
2021/08/11 06:40:37;;;;;;;7.13;6.30;;;21.40;99.90;;;;;;5012105;28;20276;-63
2021/08/11 06:43:03;;;;;;;6.30;5.80;;;21.60;99.90;;;;;;4970920;28;20191;-63
2021/08/11 06:45:29;;;;;;;8.93;5.80;;;21.90;99.90;;;;;;4982551;28;20431;-63
2021/08/11 06:47:54;;;;;;;8.73;5.83;;;22.00;99.90;;;;;;4993967;28;20469;-63
2021/08/11 06:50:20;;;;;;;6.80;6.00;;;21.80;99.90;;;;;;4975321;28;20199;-62
2021/08/11 06:52:46;;;;;;;8.17;5.90;;;21.70;99.90;;;;;;5007822;28;20218;-60
2021/08/11 06:55:16;;;;;;;7.10;5.27;;;21.70;99.90;;;;;;5011914;28;20175;-63
2021/08/11 06:57:42;;;;;;;10.57;7.80;;;21.70;99.90;;;;;;5012532;28;20244;-63
2021/08/11 07:00:09;;;;;;;7.70;5.33;;;22.00;99.90;;;;;;5012018;28;21072;-62
2021/08/11 07:02:34;;;;;;;8.27;6.13;;;22.10;99.90;;;;;;4981302;28;20430;-64
2021/08/11 07:05:00;;;;;;;9.20;5.40;;;22.50;99.90;;;;;;4996520;28;20457;-67
2021/08/11 07:07:26;;;;;;;5.00;4.60;;;22.80;99.90;;;;;;4998081;28;20748;-67
2021/08/11 07:09:56;;;;;;;6.50;5.90;;;23.00;99.90;;;;;;5002653;28;20210;-67
2021/08/11 07:12:22;;;;;;;5.93;5.27;;;23.00;99.90;;;;;;5006543;28;20449;-67
2021/08/11 07:14:48;;;;;;;7.23;5.60;;;22.90;99.90;;;;;;4996066;28;20919;-67
2021/08/11 07:17:14;;;;;;;10.40;5.20;;;23.00;99.90;;;;;;4993924;28;20685;-67
2021/08/11 07:19:40;;;;;;;5.60;5.17;;;23.00;99.90;;;;;;4988784;28;20473;-67
2021/08/11 07:22:07;;;;;;;5.80;5.20;;;23.30;99.90;;;;;;4998873;28;20430;-67
2021/08/11 07:24:32;;;;;;;6.07;5.57;;;23.60;99.90;;;;;;5001508;28;20258;-67
2021/08/11 07:26:58;;;;;;;5.70;5.20;;;23.70;99.90;;;;;;4971352;28;21117;-67
2021/08/11 07:29:23;;;;;;;5.37;4.97;;;23.40;99.90;;;;;;4993303;28;20179;-67
2021/08/11 07:31:49;;;;;;;5.53;5.13;;;23.30;99.90;;;;;;4992520;28;20191;-67
2021/08/11 07:34:16;;;;;;;6.00;5.40;;;23.30;99.90;;;;;;4978564;28;20175;-67
2021/08/11 07:36:41;;;;;;;5.40;4.73;;;23.60;99.90;;;;;;5009088;28;20185;-67
2021/08/11 07:39:07;;;;;;;9.10;5.50;;;24.20;99.90;;;;;;4990806;28;20429;-67
2021/08/11 07:41:32;;;;;;;6.07;4.83;;;24.60;99.90;;;;;;5007989;28;20199;-67
2021/08/11 07:43:59;;;;;;;5.30;4.80;;;25.00;99.90;;;;;;5007669;28;20215;-67
2021/08/11 07:46:25;;;;;;;6.83;4.80;;;24.00;99.90;;;;;;5008177;28;20815;-67
2021/08/11 07:48:51;;;;;;;6.43;5.63;;;23.90;99.90;;;;;;5003716;28;20589;-67
2021/08/11 07:51:16;;;;;;;6.83;5.40;;;24.00;99.90;;;;;;4991832;28;20480;-67
2021/08/11 07:53:42;;;;;;;7.00;5.80;;;24.10;99.90;;;;;;5008581;28;20186;-67
2021/08/11 07:56:08;;;;;;;7.03;5.10;;;24.00;99.90;;;;;;5008359;28;20179;-67
2021/08/11 07:58:34;;;;;;;6.53;5.30;;;24.30;99.90;;;;;;5008351;28;20182;-67
2021/08/11 08:00:59;;;;;;;5.30;4.90;;;24.50;99.90;;;;;;5001355;28;20285;-67
2021/08/11 08:03:25;;;;;;;4.80;4.40;;;25.00;99.90;;;;;;5007348;28;20682;-67
2021/08/11 08:05:50;;;;;;;5.73;5.23;;;25.50;99.90;;;;;;5009273;28;20187;-67
2021/08/11 08:08:17;;;;;;;5.80;5.20;;;25.40;99.90;;;;;;5012165;28;20213;-67
2021/08/11 08:10:42;;;;;;;6.50;4.73;;;24.80;99.90;;;;;;5012036;28;20191;-67
2021/08/11 08:13:08;;;;;;;6.33;5.10;;;24.40;99.90;;;;;;5012284;28;20941;-67
2021/08/11 08:15:33;;;;;;;5.80;5.17;;;24.50;99.90;;;;;;4992806;28;20687;-67
2021/08/11 08:17:59;;;;;;;6.17;5.13;;;24.50;99.90;;;;;;4994279;28;20194;-67
2021/08/11 08:20:24;;;;;;;6.43;5.00;;;24.80;99.90;;;;;;5010532;28;20226;-67
2021/08/11 08:22:50;;;;;;;5.70;4.73;;;25.30;99.90;;;;;;4996775;28;20180;-67
2021/08/11 08:25:21;;;;;;;5.57;4.80;;;25.70;99.90;;;;;;4992546;28;20179;-67
2021/08/11 08:27:50;;;;;;;5.40;4.90;;;26.30;99.90;;;;;;4992491;28;20207;-68
2021/08/11 08:30:17;;;;;;;5.97;5.37;;;26.60;99.90;;;;;;5000292;28;20446;-67
2021/08/11 08:32:43;;;;;;;5.50;5.00;;;26.70;99.90;;;;;;4997316;28;20430;-68
2021/08/11 08:35:09;;;;;;;5.53;5.03;;;26.80;99.90;;;;;;4992461;28;20449;-68
2021/08/11 08:37:37;;;;;;;5.10;4.70;;;27.20;99.90;;;;;;4992757;28;20437;-67
2021/08/11 08:40:07;;;;;;;5.30;4.90;;;26.70;99.90;;;;;;4974139;28;20827;-68
2021/08/11 08:42:33;;;;;;;5.00;4.60;;;26.10;99.90;;;;;;4992040;28;20458;-67
2021/08/11 08:45:00;;;;;;;6.47;4.60;;;25.90;99.90;;;;;;4993318;28;20482;-69
2021/08/11 08:47:26;;;;;;;5.80;5.10;;;26.70;99.90;;;;;;5003342;28;20207;-68
2021/08/11 08:49:52;;;;;;;6.03;5.43;;;27.20;99.90;;;;;;5011205;28;20821;-68
2021/08/11 08:52:19;;;;;;;7.60;5.73;;;27.10;99.90;;;;;;5011225;28;20429;-68
2021/08/11 08:54:46;;;;;;;5.60;4.93;;;27.30;99.90;;;;;;5011615;28;20268;-68
2021/08/11 08:57:13;;;;;;;6.63;5.00;;;27.40;99.90;;;;;;5011361;28;20461;-67
2021/08/11 08:59:43;;;;;;;5.17;4.67;;;27.00;99.90;;;;;;5011027;28;20461;-68
2021/08/11 09:02:10;;;;;;;5.53;5.03;;;27.30;99.90;;;;;;4985891;28;20479;-68
2021/08/11 09:04:36;;;;;;;6.03;5.00;;;27.50;99.90;;;;;;5011204;28;21016;-68
2021/08/11 09:07:05;;;;;;;5.60;4.67;;;27.40;99.90;;;;;;5011802;28;20457;-68
2021/08/11 09:09:38;;;;;;;5.23;4.83;;;27.80;99.90;;;;;;5010939;28;20344;-68
2021/08/11 09:12:14;;;;;;;5.50;5.10;;;28.30;99.90;;;;;;5009537;28;20457;-68
2021/08/11 09:14:44;;;;;;;5.47;5.07;;;28.30;99.90;;;;;;5011111;28;20428;-68
2021/08/11 09:17:12;;;;;;;5.00;4.57;;;28.50;99.90;;;;;;4978749;28;20434;-67
2021/08/11 09:19:44;;;;;;;5.37;4.87;;;28.20;99.90;;;;;;4991185;28;20458;-68
2021/08/11 09:22:12;;;;;;;5.07;4.60;;;27.90;99.90;;;;;;4991440;28;20807;-68
2021/08/11 09:24:38;;;;;;;5.50;5.10;;;27.70;99.90;;;;;;4991358;28;20430;-67
2021/08/11 09:27:20;;;;;;;5.23;4.83;;;27.80;99.90;;;;;;4991345;28;20462;-68
2021/08/11 09:30:09;;;;;;;5.17;4.67;;;27.90;99.90;;;;;;4995632;28;20445;-68
2021/08/11 09:32:53;;;;;;;5.40;4.90;;;27.70;99.90;;;;;;5008917;28;20456;-68
2021/08/11 09:35:24;;;;;;;5.90;5.50;;;28.30;99.90;;;;;;4991115;28;20418;-68
2021/08/11 09:37:51;;;;;;;5.00;4.60;;;28.30;99.90;;;;;;4991240;28;20418;-68
2021/08/11 09:40:17;;;;;;;5.80;5.20;;;28.60;99.90;;;;;;4999619;28;20888;-68
2021/08/11 09:42:44;;;;;;;5.70;5.10;;;29.60;99.90;;;;;;5010528;28;20453;-68
2021/08/11 09:45:11;;;;;;;4.97;4.67;;;29.90;99.40;;;;;;4987915;28;20218;-68
2021/08/11 09:47:37;;;;;;;6.13;5.33;;;31.10;98.40;;;;;;4990749;28;20470;-68
2021/08/11 09:50:07;;;;;;;6.43;5.03;;;30.70;97.60;;;;;;4990773;28;20549;-68
2021/08/11 09:52:51;;;;;;;6.10;4.73;;;30.40;96.70;;;;;;4995269;28;20447;-68
2021/08/11 09:55:18;;;;;;;7.07;5.57;;;30.40;97.00;;;;;;4991947;28;20499;-68
2021/08/11 09:57:44;;;;;;;5.27;4.40;;;30.80;96.50;;;;;;5003464;28;20436;-68
2021/08/11 10:00:14;;;;;;;5.33;4.83;;;31.30;95.50;;;;;;5008324;28;20533;-68
2021/08/11 10:02:44;;;;;;;5.87;5.47;;;31.40;94.70;;;;;;4997652;28;20443;-68
2021/08/11 10:05:31;;;;;;;5.13;4.67;;;31.70;94.60;;;;;;4993697;28;20910;-68
2021/08/11 10:07:57;;;;;;;5.87;5.37;;;32.30;93.10;;;;;;4993608;28;20462;-68
2021/08/11 10:10:23;;;;;;;4.67;4.23;;;33.00;91.90;;;;;;4960779;28;20451;-69
2021/08/11 10:12:49;;;;;;;5.00;4.70;;;33.70;91.40;;;;;;5013032;28;20487;-68
2021/08/11 10:15:15;;;;;;;5.43;5.03;;;34.80;88.00;;;;;;5013300;28;20178;-68
2021/08/11 10:17:43;;;;;;;5.87;4.80;;;35.80;82.40;;;;;;5012667;28;20528;-66
2021/08/11 10:20:09;;;;;;;7.20;5.03;;;36.40;75.90;;;;;;5013190;28;20484;-66
2021/08/11 10:22:38;;;;;;;5.00;4.60;;;34.70;76.80;;;;;;5012586;28;20517;-65
2021/08/11 10:25:04;;;;;;;6.10;5.70;;;33.90;79.80;;;;;;5011413;28;20790;-63
2021/08/11 10:27:31;;;;;;;5.47;5.13;;;33.40;79.60;;;;;;5012947;28;20843;-63
2021/08/11 10:29:58;;;;;;;6.70;6.00;;;32.70;81.00;;;;;;5010919;28;20453;-63
2021/08/11 10:32:24;;;;;;;6.73;6.13;;;31.90;82.10;;;;;;5001461;28;20442;-63
2021/08/11 10:34:54;;;;;;;5.53;5.03;;;31.70;84.60;;;;;;4993201;28;20920;-63
2021/08/11 10:37:23;;;;;;;6.07;5.67;;;31.90;83.50;;;;;;4997977;28;20455;-60
2021/08/11 10:39:49;;;;;;;5.47;5.00;;;32.10;84.30;;;;;;5009756;28;20461;-60
2021/08/11 10:42:15;;;;;;;6.03;5.53;;;31.70;84.30;;;;;;5002282;28;20434;-63
2021/08/11 10:44:42;;;;;;;7.17;6.47;;;31.20;86.70;;;;;;4993051;28;20442;-63
2021/08/11 10:47:10;;;;;;;5.23;4.83;;;30.50;88.50;;;;;;4993272;28;20825;-63
2021/08/11 10:50:03;;;;;;;6.93;6.23;;;30.20;90.00;;;;;;4995176;28;20454;-67
2021/08/11 10:52:30;;;;;;;6.10;5.47;;;30.10;90.50;;;;;;5006711;28;20430;-67
2021/08/11 10:55:05;;;;;;;5.73;5.33;;;29.70;90.90;;;;;;4994998;28;20488;-67
2021/08/11 10:57:33;;;;;;;5.30;4.90;;;29.50;90.30;;;;;;5009128;28;20432;-67
2021/08/11 11:00:04;;;;;;;6.33;5.77;;;29.40;91.30;;;;;;5009913;28;20446;-67
2021/08/11 11:02:41;;;;;;;10.70;6.40;;;29.20;92.00;;;;;;5006524;28;20820;-66
2021/08/11 11:05:16;;;;;;;6.00;5.40;;;28.90;93.90;;;;;;5012372;28;20487;-67
2021/08/11 11:07:41;;;;;;;6.43;5.93;;;29.00;93.30;;;;;;5011193;28;20457;-67
2021/08/11 11:10:26;;;;;;;6.67;6.17;;;29.10;93.80;;;;;;4994644;28;20970;-64
2021/08/11 11:12:51;;;;;;;5.87;5.37;;;29.40;93.10;;;;;;4992810;28;20649;-64
2021/08/11 11:15:40;;;;;;;6.27;5.77;;;29.60;92.70;;;;;;4992812;28;20514;-64
2021/08/11 11:18:23;;;;;;;5.63;5.17;;;31.50;91.70;;;;;;4992398;28;20183;-65
2021/08/11 11:20:58;;;;;;;6.00;5.50;;;34.60;87.00;;;;;;4992418;28;20478;-65
2021/08/11 11:23:35;;;;;;;4.87;4.33;;;38.40;76.70;;;;;;4992533;28;20480;-64
2021/08/11 11:26:10;;;;;;;5.83;5.43;;;41.00;64.50;;;;;;4992623;28;20421;-64
2021/08/11 11:29:01;;;;;;;5.77;5.27;;;42.20;57.80;;;;;;4992370;28;20466;-64
2021/08/11 11:31:42;;;;;;;7.90;7.10;;;42.40;53.20;;;;;;5010147;28;20440;-65
2021/08/11 11:34:28;;;;;;;5.70;5.30;;;43.90;51.00;;;;;;4994614;28;20418;-64
2021/08/11 11:36:56;;;;;;;5.47;4.97;;;45.40;47.50;;;;;;5010490;28;20827;-64
2021/08/11 11:39:24;;;;;;;5.70;5.33;;;46.50;43.10;;;;;;5011895;28;20422;-64
2021/08/11 11:42:29;;;;;;;5.33;4.90;;;45.80;42.70;;;;;;5014662;28;20538;-64
2021/08/11 11:45:02;;;;;;;4.70;4.30;;;45.50;42.50;;;;;;5012080;28;20434;-64
2021/08/11 11:47:44;;;;;;;4.40;4.10;;;43.70;44.90;;;;;;5009214;28;20454;-64
2021/08/11 11:50:22;;;;;;;5.00;4.30;;;43.30;45.40;;;;;;5015548;28;20440;-64
2021/08/11 11:53:04;;;;;;;6.93;4.63;;;43.80;44.80;;;;;;5011670;28;20802;-64
2021/08/11 11:55:33;;;;;;;4.97;4.47;;;43.50;44.20;;;;;;5015952;28;20512;-64
2021/08/11 11:58:02;;;;;;;5.20;4.67;;;41.80;45.00;;;;;;5014051;28;20476;-64
2021/08/11 12:00:29;;;;;;;4.23;3.90;;;41.30;46.80;;;;;;5015436;28;20537;-64
2021/08/11 12:02:55;;;;;;;5.23;4.70;;;42.30;45.60;;;;;;5010708;28;20433;-64
2021/08/11 12:05:22;;;;;;;6.80;5.30;;;42.90;44.30;;;;;;5007948;28;20445;-64
2021/08/11 12:07:47;;;;;;;5.60;5.10;;;43.60;43.50;;;;;;4975244;28;20810;-64
2021/08/11 12:10:27;;;;;;;5.60;5.20;;;44.60;43.60;;;;;;5002377;28;20545;-64
2021/08/11 12:13:01;;;;;;;5.60;4.77;;;46.00;42.20;;;;;;4996860;28;20237;-64
2021/08/11 12:15:29;;;;;;;5.47;4.60;;;47.00;40.90;;;;;;4975124;28;20823;-64
2021/08/11 12:17:59;;;;;;;4.90;4.33;;;45.30;41.00;;;;;;4992603;28;20426;-64
2021/08/11 12:20:33;;;;;;;9.23;4.47;;;42.30;43.60;;;;;;4991962;28;20472;-64
2021/08/11 12:23:20;;;;;;;4.77;4.37;;;39.60;46.20;;;;;;5007148;28;20969;-63
2021/08/11 12:25:48;;;;;;;5.27;4.40;;;38.00;48.80;;;;;;5012049;28;20429;-64
2021/08/11 12:28:15;;;;;;;5.50;4.80;;;40.00;47.60;;;;;;4999269;28;20468;-64
2021/08/11 12:30:49;;;;;;;4.87;4.47;;;41.90;45.30;;;;;;5003782;28;20433;-64
2021/08/11 12:33:17;;;;;;;5.43;4.93;;;43.20;44.30;;;;;;5010413;28;20532;-64
2021/08/11 12:35:42;;;;;;;5.47;4.90;;;42.50;44.60;;;;;;5011824;28;20414;-64
2021/08/11 12:38:08;;;;;;;5.60;4.30;;;44.30;43.60;;;;;;5011925;28;20433;-64
2021/08/11 12:40:40;;;;;;;5.50;5.10;;;45.70;42.20;;;;;;5011617;28;20206;-64
2021/08/11 12:43:07;;;;;;;5.30;4.80;;;46.00;41.20;;;;;;5011401;28;20171;-64
2021/08/11 12:45:51;;;;;;;4.50;4.13;;;46.60;40.40;;;;;;5003957;28;20449;-64
2021/08/11 12:48:25;;;;;;;5.43;4.93;;;47.60;39.60;;;;;;4991702;28;20465;-63
2021/08/11 12:50:51;;;;;;;4.80;4.50;;;47.90;38.70;;;;;;4992201;28;20537;-64
2021/08/11 12:53:32;;;;;;;5.00;4.70;;;47.70;38.90;;;;;;4992555;28;20525;-64